Time;durP1;ratioP1;P1;durP2;ratioP2;P2;SDS_P1;SDS_P2;PMS_P1;PMS_P2;Temp;Humidity;BMP_temperature;BMP_pressure;BME280_temperature;BME280_humidity;BME280_pressure;Samples;Min_cycle;Max_cycle;Signal;HPM_P1;HPM_P2
2023/10/23 00:00:03;;;;;;;;;19.33;18.00;;;;;;;;5136532;27;45963;-45
2023/10/23 00:02:30;;;;;;;;;19.33;17.67;;;;;;;;5137088;27;45421;-46
2023/10/23 00:04:55;;;;;;;;;19.33;18.33;;;;;;;;5142766;27;45659;-47
2023/10/23 00:07:20;;;;;;;;;20.00;16.33;;;;;;;;5137641;27;45327;-45
2023/10/23 00:09:45;;;;;;;;;14.67;13.00;;;;;;;;5142945;27;46437;-48
2023/10/23 00:12:10;;;;;;;;;17.00;14.33;;;;;;;;5132709;27;45263;-47
2023/10/23 00:14:36;;;;;;;;;19.00;19.00;;;;;;;;5137726;27;45626;-47
2023/10/23 00:17:01;;;;;;;;;25.33;19.00;;;;;;;;5137529;27;45418;-46
2023/10/23 00:19:26;;;;;;;;;20.67;17.67;;;;;;;;5144200;27;45580;-48
2023/10/23 00:21:51;;;;;;;;;18.67;18.00;;;;;;;;5137661;27;45382;-46
2023/10/23 00:24:17;;;;;;;;;20.00;18.00;;;;;;;;5142309;27;45302;-47
2023/10/23 00:26:42;;;;;;;;;22.00;19.00;;;;;;;;5132377;27;45230;-46
2023/10/23 00:29:07;;;;;;;;;22.67;19.33;;;;;;;;5143480;27;46080;-47
2023/10/23 00:31:32;;;;;;;;;24.33;19.33;;;;;;;;5143847;27;45233;-45
2023/10/23 00:33:57;;;;;;;;;21.00;17.67;;;;;;;;5136646;27;45209;-46
2023/10/23 00:36:23;;;;;;;;;16.67;16.00;;;;;;;;5143890;27;45580;-45
2023/10/23 00:38:48;;;;;;;;;15.33;13.33;;;;;;;;5136955;27;46622;-45
2023/10/23 00:41:13;;;;;;;;;17.00;16.67;;;;;;;;5136837;27;45206;-46
2023/10/23 00:43:38;;;;;;;;;21.67;16.67;;;;;;;;5142205;27;45584;-46
2023/10/23 00:46:15;;;;;;;;;22.33;17.33;;;;;;;;5142447;27;45426;-48
2023/10/23 00:48:42;;;;;;;;;14.33;14.00;;;;;;;;5140561;27;46568;-46
2023/10/23 00:51:10;;;;;;;;;17.33;15.00;;;;;;;;5124336;27;45917;-46
2023/10/23 00:53:37;;;;;;;;;18.33;17.67;;;;;;;;5143927;27;45341;-46
2023/10/23 00:56:04;;;;;;;;;20.67;18.00;;;;;;;;5136102;27;45562;-47
2023/10/23 00:58:31;;;;;;;;;24.00;22.67;;;;;;;;5113602;27;46486;-46
2023/10/23 01:00:57;;;;;;;;;17.00;17.00;;;;;;;;5139041;27;45225;-47
2023/10/23 01:03:22;;;;;;;;;14.00;14.00;;;;;;;;5134995;27;45358;-49
2023/10/23 01:05:48;;;;;;;;;17.33;16.00;;;;;;;;5135469;27;45437;-46
2023/10/23 01:08:13;;;;;;;;;18.00;16.33;;;;;;;;5142108;27;45662;-46
2023/10/23 01:10:38;;;;;;;;;15.67;14.00;;;;;;;;5138143;27;45265;-47
2023/10/23 01:13:07;;;;;;;;;18.00;17.33;;;;;;;;5139808;27;45260;-47
2023/10/23 01:15:32;;;;;;;;;16.67;15.33;;;;;;;;5136563;27;45551;-47
2023/10/23 01:17:59;;;;;;;;;19.33;15.33;;;;;;;;5135865;27;46196;-45
2023/10/23 01:20:26;;;;;;;;;15.00;11.67;;;;;;;;5137026;27;45329;-46
2023/10/23 01:22:54;;;;;;;;;16.33;13.33;;;;;;;;5122938;27;45307;-47
2023/10/23 01:25:19;;;;;;;;;17.00;13.67;;;;;;;;5137214;27;45348;-46
2023/10/23 01:27:44;;;;;;;;;13.00;11.67;;;;;;;;5142739;27;46034;-49
2023/10/23 01:30:10;;;;;;;;;17.00;15.33;;;;;;;;5135073;27;45333;-47
2023/10/23 01:32:35;;;;;;;;;15.67;15.67;;;;;;;;5138609;27;45322;-48
2023/10/23 01:35:01;;;;;;;;;11.00;11.00;;;;;;;;5134477;27;45366;-49
2023/10/23 01:37:26;;;;;;;;;16.67;10.33;;;;;;;;5137846;27;45487;-46
2023/10/23 01:39:51;;;;;;;;;10.67;10.67;;;;;;;;5138806;27;45293;-50
2023/10/23 01:42:16;;;;;;;;;13.67;12.67;;;;;;;;5138815;27;45423;-48
2023/10/23 01:44:42;;;;;;;;;12.33;11.00;;;;;;;;5142692;27;45550;-48
2023/10/23 01:47:07;;;;;;;;;12.00;10.67;;;;;;;;5135911;27;45317;-49
2023/10/23 01:49:32;;;;;;;;;11.00;9.67;;;;;;;;5136011;27;45928;-49
2023/10/23 01:51:57;;;;;;;;;17.00;10.67;;;;;;;;5134640;27;45210;-46
2023/10/23 01:54:22;;;;;;;;;12.00;9.33;;;;;;;;5135548;27;45219;-46
2023/10/23 01:56:47;;;;;;;;;10.67;10.67;;;;;;;;5140904;27;45462;-47
2023/10/23 01:59:13;;;;;;;;;11.00;11.00;;;;;;;;5134964;27;45351;-46
2023/10/23 02:01:39;;;;;;;;;10.00;10.00;;;;;;;;5142092;27;45391;-46
2023/10/23 02:04:05;;;;;;;;;10.00;9.00;;;;;;;;5137921;27;45560;-46
2023/10/23 02:06:30;;;;;;;;;11.00;9.33;;;;;;;;5140017;27;45958;-46
2023/10/23 02:08:55;;;;;;;;;9.67;7.00;;;;;;;;5139411;27;45264;-46
2023/10/23 02:11:20;;;;;;;;;7.67;7.67;;;;;;;;5137086;27;45363;-46
2023/10/23 02:13:45;;;;;;;;;11.00;8.67;;;;;;;;5137833;27;45614;-49
2023/10/23 02:16:11;;;;;;;;;10.33;9.67;;;;;;;;5138507;27;45575;-47
2023/10/23 02:18:36;;;;;;;;;7.00;6.33;;;;;;;;5138934;27;45306;-46
2023/10/23 02:21:01;;;;;;;;;9.33;8.00;;;;;;;;5138343;27;45427;-47
2023/10/23 02:23:27;;;;;;;;;8.00;8.00;;;;;;;;5140840;27;45641;-47
2023/10/23 02:25:52;;;;;;;;;5.67;5.00;;;;;;;;5135764;27;45238;-48
2023/10/23 02:28:17;;;;;;;;;6.00;6.00;;;;;;;;5135453;27;45605;-47
2023/10/23 02:30:42;;;;;;;;;8.00;6.00;;;;;;;;5139492;27;45452;-46
2023/10/23 02:33:07;;;;;;;;;7.00;7.00;;;;;;;;5141292;27;45385;-47
2023/10/23 02:35:34;;;;;;;;;9.33;9.00;;;;;;;;5141935;27;45308;-49
2023/10/23 02:37:59;;;;;;;;;6.67;6.67;;;;;;;;5135346;27;45292;-46
2023/10/23 02:40:24;;;;;;;;;7.33;7.00;;;;;;;;5142053;27;45541;-49
2023/10/23 02:42:49;;;;;;;;;7.67;7.67;;;;;;;;5131669;27;45257;-49
2023/10/23 02:45:15;;;;;;;;;9.33;6.00;;;;;;;;5134882;27;46744;-46
2023/10/23 02:47:40;;;;;;;;;7.00;6.33;;;;;;;;5131192;27;45454;-48
2023/10/23 02:50:05;;;;;;;;;9.00;6.33;;;;;;;;5116780;27;45477;-45
2023/10/23 02:52:31;;;;;;;;;9.33;8.00;;;;;;;;5135660;27;45674;-46
2023/10/23 02:54:56;;;;;;;;;9.33;8.00;;;;;;;;5141934;27;45510;-47
2023/10/23 02:57:21;;;;;;;;;7.33;6.00;;;;;;;;5137867;27;45312;-47
2023/10/23 02:59:46;;;;;;;;;8.33;5.00;;;;;;;;5141384;27;45327;-47
2023/10/23 03:02:12;;;;;;;;;8.33;7.33;;;;;;;;5133924;27;45310;-49
2023/10/23 03:04:37;;;;;;;;;6.67;6.67;;;;;;;;5137210;27;46269;-45
2023/10/23 03:07:02;;;;;;;;;9.67;7.00;;;;;;;;5138725;27;45356;-47
2023/10/23 03:09:27;;;;;;;;;9.33;7.00;;;;;;;;5138352;27;45340;-45
2023/10/23 03:11:53;;;;;;;;;8.00;7.00;;;;;;;;5139177;27;45315;-46
2023/10/23 03:14:18;;;;;;;;;6.67;6.67;;;;;;;;5121238;27;46390;-46
2023/10/23 03:16:43;;;;;;;;;7.00;7.00;;;;;;;;5131413;27;45455;-47
2023/10/23 03:19:08;;;;;;;;;5.00;4.00;;;;;;;;5140093;27;45542;-46
2023/10/23 03:21:33;;;;;;;;;7.67;6.00;;;;;;;;5135843;27;45251;-46
2023/10/23 03:23:59;;;;;;;;;5.67;4.33;;;;;;;;5135861;27;45570;-47
2023/10/23 03:26:24;;;;;;;;;4.67;4.67;;;;;;;;5141135;27;45209;-48
2023/10/23 03:28:49;;;;;;;;;7.33;6.00;;;;;;;;5135530;27;45557;-45
2023/10/23 03:31:14;;;;;;;;;5.00;4.00;;;;;;;;5130153;27;45299;-46
2023/10/23 03:33:41;;;;;;;;;5.00;5.00;;;;;;;;5133882;27;45911;-48
2023/10/23 03:36:07;;;;;;;;;9.00;7.00;;;;;;;;5131772;27;45888;-46
2023/10/23 03:38:32;;;;;;;;;4.33;4.33;;;;;;;;5136337;27;45414;-47
2023/10/23 03:40:58;;;;;;;;;6.67;4.67;;;;;;;;5132342;27;45344;-46
2023/10/23 03:43:24;;;;;;;;;7.33;5.00;;;;;;;;5133343;27;46300;-46
2023/10/23 03:45:49;;;;;;;;;5.33;5.00;;;;;;;;5129478;27;45478;-48
2023/10/23 03:48:14;;;;;;;;;8.33;5.00;;;;;;;;5132912;27;45409;-47
2023/10/23 03:50:40;;;;;;;;;4.00;4.00;;;;;;;;5132689;27;45752;-46
2023/10/23 03:53:05;;;;;;;;;6.00;4.67;;;;;;;;5133438;27;45401;-47
2023/10/23 03:55:30;;;;;;;;;5.67;5.67;;;;;;;;5141255;27;46557;-46
2023/10/23 03:57:55;;;;;;;;;4.00;4.00;;;;;;;;5135968;27;45274;-46
2023/10/23 04:00:20;;;;;;;;;5.33;5.00;;;;;;;;5133376;27;45485;-46
2023/10/23 04:02:46;;;;;;;;;4.67;4.00;;;;;;;;5140759;27;46276;-46
2023/10/23 04:05:11;;;;;;;;;5.00;5.00;;;;;;;;5139012;27;45396;-48
2023/10/23 04:07:36;;;;;;;;;6.67;5.00;;;;;;;;5138681;27;45423;-48
2023/10/23 04:10:01;;;;;;;;;4.00;3.67;;;;;;;;5135661;27;45318;-45
2023/10/23 04:12:26;;;;;;;;;5.00;3.00;;;;;;;;5135051;27;45481;-46
2023/10/23 04:14:51;;;;;;;;;4.00;3.67;;;;;;;;5117372;27;45376;-47
2023/10/23 04:17:17;;;;;;;;;4.00;4.00;;;;;;;;5118813;27;45374;-46
2023/10/23 04:19:42;;;;;;;;;3.00;2.00;;;;;;;;5115617;27;45518;-47
2023/10/23 04:22:07;;;;;;;;;4.00;3.33;;;;;;;;5132455;27;46173;-45
2023/10/23 04:24:32;;;;;;;;;4.33;4.33;;;;;;;;5117189;27;45609;-46
2023/10/23 04:26:58;;;;;;;;;3.33;3.00;;;;;;;;5138621;27;45332;-48
2023/10/23 04:29:23;;;;;;;;;4.00;4.00;;;;;;;;5119890;27;45343;-48
2023/10/23 04:31:48;;;;;;;;;6.00;5.00;;;;;;;;5140243;27;46364;-46
2023/10/23 04:34:14;;;;;;;;;5.00;4.00;;;;;;;;5137409;27;45467;-46
2023/10/23 04:36:39;;;;;;;;;5.00;4.00;;;;;;;;5142337;27;45340;-45
2023/10/23 04:39:05;;;;;;;;;3.67;3.67;;;;;;;;5139309;27;45447;-46
2023/10/23 04:41:30;;;;;;;;;4.00;4.00;;;;;;;;5141575;27;45916;-46
2023/10/23 04:43:55;;;;;;;;;4.00;4.00;;;;;;;;5135701;27;45615;-46
2023/10/23 04:46:20;;;;;;;;;4.33;4.33;;;;;;;;5134430;27;45270;-45
2023/10/23 04:48:46;;;;;;;;;3.67;3.67;;;;;;;;5139611;27;45203;-47
2023/10/23 04:51:11;;;;;;;;;4.67;4.67;;;;;;;;5141240;27;46319;-45
2023/10/23 04:53:36;;;;;;;;;5.33;5.33;;;;;;;;5137947;27;45495;-47
2023/10/23 04:56:03;;;;;;;;;4.00;4.00;;;;;;;;5133755;27;45307;-46
2023/10/23 04:58:29;;;;;;;;;1.67;1.67;;;;;;;;5137411;27;45412;-47
2023/10/23 05:00:54;;;;;;;;;7.67;6.67;;;;;;;;5133260;27;46175;-46
2023/10/23 05:03:19;;;;;;;;;6.67;4.00;;;;;;;;5142067;27;45520;-46
2023/10/23 05:05:47;;;;;;;;;4.67;4.00;;;;;;;;5141188;27;45695;-49
2023/10/23 05:08:12;;;;;;;;;5.00;5.00;;;;;;;;5140673;27;45396;-47
2023/10/23 05:10:37;;;;;;;;;3.00;2.67;;;;;;;;5137849;27;45492;-45
2023/10/23 05:13:03;;;;;;;;;6.33;5.33;;;;;;;;5120826;27;45311;-47
2023/10/23 05:15:28;;;;;;;;;8.33;7.00;;;;;;;;5119713;27;45627;-49
2023/10/23 05:17:53;;;;;;;;;6.67;5.00;;;;;;;;5139690;27;45376;-49
2023/10/23 05:20:18;;;;;;;;;5.33;3.00;;;;;;;;5138110;27;45503;-47
2023/10/23 05:22:44;;;;;;;;;4.00;4.00;;;;;;;;5140920;27;45407;-47
2023/10/23 05:25:09;;;;;;;;;4.67;3.67;;;;;;;;5140706;27;45527;-48
2023/10/23 05:27:37;;;;;;;;;3.67;3.67;;;;;;;;5138791;27;45388;-45
2023/10/23 05:30:03;;;;;;;;;4.67;3.00;;;;;;;;5140741;27;46574;-46
2023/10/23 05:32:29;;;;;;;;;3.33;3.33;;;;;;;;5135673;27;45385;-46
2023/10/23 05:34:54;;;;;;;;;5.33;5.00;;;;;;;;5137941;27;45552;-46
2023/10/23 05:37:19;;;;;;;;;4.33;3.33;;;;;;;;5118492;27;45320;-49
2023/10/23 05:39:45;;;;;;;;;5.00;4.00;;;;;;;;5113190;27;48224;-47
2023/10/23 05:42:10;;;;;;;;;4.33;4.33;;;;;;;;5136613;27;45425;-47
2023/10/23 05:44:35;;;;;;;;;5.67;3.67;;;;;;;;5137119;27;45411;-49
2023/10/23 05:47:00;;;;;;;;;6.00;2.67;;;;;;;;5135657;27;45510;-49
2023/10/23 05:49:26;;;;;;;;;6.67;6.00;;;;;;;;5134493;27;45498;-47
2023/10/23 05:51:52;;;;;;;;;4.00;3.00;;;;;;;;5140181;27;45513;-48
2023/10/23 05:54:17;;;;;;;;;5.33;5.33;;;;;;;;5141787;27;45332;-48
2023/10/23 05:56:43;;;;;;;;;4.33;3.33;;;;;;;;5134846;27;45559;-46
2023/10/23 05:59:08;;;;;;;;;4.67;4.00;;;;;;;;5133415;27;45299;-47
2023/10/23 06:01:33;;;;;;;;;2.00;2.00;;;;;;;;5134984;27;45398;-48
2023/10/23 06:03:59;;;;;;;;;3.67;2.33;;;;;;;;5132509;27;45310;-47
2023/10/23 06:06:24;;;;;;;;;4.67;3.00;;;;;;;;5137995;27;45150;-49
2023/10/23 06:08:49;;;;;;;;;3.67;3.67;;;;;;;;5138952;27;46724;-46
2023/10/23 06:11:14;;;;;;;;;3.00;3.00;;;;;;;;5138025;27;45328;-46
2023/10/23 06:13:39;;;;;;;;;4.33;4.00;;;;;;;;5140258;27;45354;-47
2023/10/23 06:16:05;;;;;;;;;2.00;2.00;;;;;;;;5128490;27;45479;-49
2023/10/23 06:18:34;;;;;;;;;4.33;3.00;;;;;;;;5126915;27;46657;-48
2023/10/23 06:21:03;;;;;;;;;2.33;2.33;;;;;;;;5137662;27;45312;-45
2023/10/23 06:23:28;;;;;;;;;2.33;2.33;;;;;;;;5128948;27;45376;-48
2023/10/23 06:25:54;;;;;;;;;4.00;3.67;;;;;;;;5141274;27;45531;-46
2023/10/23 06:28:19;;;;;;;;;3.67;3.67;;;;;;;;5121287;27;48284;-45
2023/10/23 06:30:45;;;;;;;;;2.00;2.00;;;;;;;;5141932;27;45128;-49
2023/10/23 06:33:10;;;;;;;;;6.33;3.33;;;;;;;;5141308;27;45375;-53
2023/10/23 06:35:35;;;;;;;;;3.67;2.00;;;;;;;;5140954;27;45239;-49
2023/10/23 06:38:00;;;;;;;;;3.67;3.67;;;;;;;;5122861;27;47487;-49
2023/10/23 06:40:25;;;;;;;;;2.67;2.67;;;;;;;;5116014;27;45202;-47
2023/10/23 06:42:51;;;;;;;;;3.00;3.00;;;;;;;;5122762;27;45316;-48
2023/10/23 06:45:16;;;;;;;;;3.00;3.00;;;;;;;;5140001;27;45396;-50
2023/10/23 06:47:41;;;;;;;;;3.00;3.00;;;;;;;;5140178;27;45327;-47
2023/10/23 06:50:06;;;;;;;;;6.00;4.33;;;;;;;;5130744;27;45418;-48
2023/10/23 06:52:32;;;;;;;;;3.00;3.00;;;;;;;;5141825;27;45497;-54
2023/10/23 06:54:57;;;;;;;;;4.00;3.00;;;;;;;;5141144;27;45527;-49
2023/10/23 06:57:22;;;;;;;;;2.00;2.00;;;;;;;;5141749;27;46061;-49
2023/10/23 06:59:48;;;;;;;;;3.33;3.00;;;;;;;;5121402;27;45887;-51
2023/10/23 07:02:13;;;;;;;;;3.00;3.00;;;;;;;;5140106;27;45387;-50
2023/10/23 07:04:38;;;;;;;;;5.00;2.00;;;;;;;;5137958;27;45363;-47
2023/10/23 07:07:04;;;;;;;;;5.00;3.33;;;;;;;;5140362;27;45508;-50
2023/10/23 07:09:29;;;;;;;;;13.33;10.67;;;;;;;;5140927;27;45838;-46
2023/10/23 07:11:55;;;;;;;;;11.67;11.00;;;;;;;;5141492;27;45449;-49
2023/10/23 07:14:20;;;;;;;;;8.67;5.33;;;;;;;;5139881;27;45351;-47
2023/10/23 07:16:45;;;;;;;;;2.33;0.00;;;;;;;;5141834;27;46543;-48
2023/10/23 07:19:11;;;;;;;;;5.33;5.33;;;;;;;;5119702;27;45474;-46
2023/10/23 07:21:36;;;;;;;;;7.33;5.67;;;;;;;;5140653;27;45470;-48
2023/10/23 07:24:01;;;;;;;;;3.00;3.00;;;;;;;;5139488;27;45684;-47
2023/10/23 07:26:27;;;;;;;;;8.00;5.67;;;;;;;;5140020;27;46266;-48
2023/10/23 07:28:52;;;;;;;;;5.33;3.67;;;;;;;;5141143;27;45307;-46
2023/10/23 07:31:17;;;;;;;;;4.67;4.67;;;;;;;;5140695;27;45609;-46
2023/10/23 07:33:42;;;;;;;;;5.33;4.00;;;;;;;;5141234;27;45319;-47
2023/10/23 07:36:11;;;;;;;;;5.67;2.67;;;;;;;;5140641;27;46480;-47
2023/10/23 07:38:37;;;;;;;;;3.00;3.00;;;;;;;;5139793;27;45443;-49
2023/10/23 07:41:03;;;;;;;;;4.00;3.67;;;;;;;;5138463;27;45356;-47
2023/10/23 07:43:28;;;;;;;;;3.00;3.00;;;;;;;;5119016;27;45619;-49
2023/10/23 07:45:54;;;;;;;;;3.33;3.00;;;;;;;;5140603;27;46035;-47
2023/10/23 07:48:21;;;;;;;;;4.00;2.67;;;;;;;;5138191;27;45290;-47
2023/10/23 07:50:46;;;;;;;;;3.00;3.00;;;;;;;;5136581;27;45655;-46
2023/10/23 07:53:12;;;;;;;;;2.00;2.00;;;;;;;;5131329;27;45568;-49
2023/10/23 07:55:37;;;;;;;;;2.00;2.00;;;;;;;;5132456;27;46214;-47
2023/10/23 07:58:03;;;;;;;;;5.00;3.33;;;;;;;;5127936;27;45459;-47
2023/10/23 08:00:28;;;;;;;;;3.00;3.00;;;;;;;;5136911;27;45420;-47
2023/10/23 08:02:53;;;;;;;;;3.00;3.00;;;;;;;;5134989;27;45405;-48
2023/10/23 08:05:19;;;;;;;;;4.00;4.00;;;;;;;;5135150;27;45175;-47
2023/10/23 08:07:44;;;;;;;;;5.00;3.00;;;;;;;;5135032;27;45169;-47
2023/10/23 08:10:09;;;;;;;;;5.00;3.33;;;;;;;;5132118;27;45585;-47
2023/10/23 08:12:34;;;;;;;;;3.00;3.00;;;;;;;;5132544;27;45403;-49
2023/10/23 08:14:59;;;;;;;;;2.33;1.00;;;;;;;;5132003;27;45336;-48
2023/10/23 08:17:24;;;;;;;;;3.00;2.00;;;;;;;;5136243;27;45261;-48
2023/10/23 08:19:50;;;;;;;;;3.00;3.00;;;;;;;;5136291;27;45186;-49
2023/10/23 08:22:15;;;;;;;;;4.00;3.00;;;;;;;;5133866;27;45422;-46
2023/10/23 08:24:40;;;;;;;;;4.00;4.00;;;;;;;;5133255;27;45329;-46
2023/10/23 08:27:05;;;;;;;;;5.00;5.00;;;;;;;;5136696;27;45249;-47
2023/10/23 08:29:31;;;;;;;;;4.67;4.67;;;;;;;;5125328;27;45400;-47
2023/10/23 08:31:57;;;;;;;;;7.67;4.67;;;;;;;;5132446;27;45654;-46
2023/10/23 08:34:22;;;;;;;;;4.00;3.00;;;;;;;;5122674;27;46486;-47
2023/10/23 08:36:48;;;;;;;;;4.00;4.00;;;;;;;;5127149;27;45296;-46
2023/10/23 08:39:13;;;;;;;;;5.00;4.00;;;;;;;;5124998;27;45657;-48
2023/10/23 08:41:38;;;;;;;;;4.33;4.33;;;;;;;;5127462;27;45535;-47
2023/10/23 08:44:03;;;;;;;;;4.00;4.00;;;;;;;;5135968;27;46203;-48
2023/10/23 08:46:31;;;;;;;;;6.00;5.33;;;;;;;;5118979;27;45497;-48
2023/10/23 08:48:57;;;;;;;;;3.67;3.67;;;;;;;;5143613;27;45345;-47
2023/10/23 08:51:22;;;;;;;;;5.33;4.00;;;;;;;;5133913;27;45795;-49
2023/10/23 08:54:14;;;;;;;;;7.33;4.67;;;;;;;;5124781;27;47670;-46
2023/10/23 08:56:42;;;;;;;;;6.00;6.00;;;;;;;;5132842;27;45376;-47
2023/10/23 08:59:08;;;;;;;;;5.00;5.00;;;;;;;;5128305;27;45314;-47
2023/10/23 09:01:34;;;;;;;;;4.67;4.67;;;;;;;;5120659;27;45338;-47
2023/10/23 09:04:00;;;;;;;;;4.33;3.00;;;;;;;;5135856;27;45262;-47
2023/10/23 09:06:25;;;;;;;;;5.00;4.67;;;;;;;;5131758;27;45490;-47
2023/10/23 09:08:50;;;;;;;;;4.67;4.00;;;;;;;;5136862;27;45283;-47
2023/10/23 09:11:15;;;;;;;;;4.00;4.00;;;;;;;;5138697;27;45274;-48
2023/10/23 09:13:41;;;;;;;;;9.00;4.00;;;;;;;;5106189;27;47278;-47
2023/10/23 09:16:07;;;;;;;;;7.33;6.33;;;;;;;;5131188;27;45699;-46
2023/10/23 09:18:33;;;;;;;;;5.33;3.67;;;;;;;;5135507;27;45330;-49
2023/10/23 09:20:58;;;;;;;;;5.67;5.33;;;;;;;;5142677;27;45483;-46
2023/10/23 09:23:24;;;;;;;;;8.00;5.33;;;;;;;;5126974;27;45700;-48
2023/10/23 09:25:49;;;;;;;;;5.67;4.67;;;;;;;;5126260;27;45432;-47
2023/10/23 09:28:14;;;;;;;;;5.33;5.00;;;;;;;;5123946;27;45358;-46
2023/10/23 09:30:39;;;;;;;;;5.00;5.00;;;;;;;;5130659;27;45353;-47
2023/10/23 09:33:05;;;;;;;;;7.00;4.67;;;;;;;;5142284;27;45502;-47
2023/10/23 09:35:31;;;;;;;;;6.00;6.00;;;;;;;;5126129;27;45363;-46
2023/10/23 09:37:56;;;;;;;;;5.00;5.00;;;;;;;;5123826;27;45357;-48
2023/10/23 09:40:21;;;;;;;;;3.33;2.00;;;;;;;;5137448;27;45514;-46
2023/10/23 09:42:47;;;;;;;;;5.67;4.33;;;;;;;;5116028;27;47352;-46
2023/10/23 09:45:12;;;;;;;;;4.00;4.00;;;;;;;;5137642;27;45522;-45
2023/10/23 09:47:39;;;;;;;;;4.33;4.00;;;;;;;;5123699;27;45357;-46
2023/10/23 09:50:04;;;;;;;;;4.33;4.33;;;;;;;;5133075;27;45452;-46
2023/10/23 09:52:36;;;;;;;;;3.00;3.00;;;;;;;;5119827;27;46622;-46
2023/10/23 09:55:01;;;;;;;;;4.00;4.00;;;;;;;;5141963;27;45390;-46
2023/10/23 09:57:33;;;;;;;;;3.33;3.33;;;;;;;;5113725;27;45762;-46
2023/10/23 10:00:13;;;;;;;;;6.00;4.33;;;;;;;;5131167;27;45347;-46
2023/10/23 10:02:38;;;;;;;;;3.00;3.00;;;;;;;;5126282;27;46999;-47
2023/10/23 10:05:13;;;;;;;;;4.00;3.67;;;;;;;;5141683;27;45459;-47
2023/10/23 10:07:53;;;;;;;;;8.00;4.33;;;;;;;;5138857;27;45333;-47
2023/10/23 10:10:20;;;;;;;;;5.00;3.00;;;;;;;;5115725;27;45649;-46
2023/10/23 10:12:46;;;;;;;;;2.00;2.00;;;;;;;;5128723;27;46350;-46
2023/10/23 10:15:12;;;;;;;;;3.67;3.00;;;;;;;;5141613;27;45404;-46
2023/10/23 10:17:37;;;;;;;;;3.33;3.00;;;;;;;;5142145;27;45283;-46
2023/10/23 10:20:05;;;;;;;;;2.67;2.33;;;;;;;;5125592;27;45602;-47
2023/10/23 10:22:33;;;;;;;;;3.33;2.67;;;;;;;;5128080;27;45381;-46
2023/10/23 10:24:59;;;;;;;;;2.00;2.00;;;;;;;;5141413;27;45386;-47
2023/10/23 10:27:24;;;;;;;;;3.33;2.00;;;;;;;;5124775;27;45481;-47
2023/10/23 10:29:51;;;;;;;;;2.00;2.00;;;;;;;;5114712;27;45536;-46
2023/10/23 10:32:16;;;;;;;;;3.33;2.67;;;;;;;;5130397;27;47271;-45
2023/10/23 10:34:45;;;;;;;;;1.67;1.67;;;;;;;;5132690;27;45353;-47
2023/10/23 10:37:10;;;;;;;;;0.67;0.67;;;;;;;;5135518;27;45310;-46
2023/10/23 10:39:48;;;;;;;;;3.33;3.00;;;;;;;;5130295;27;45598;-46
2023/10/23 10:42:20;;;;;;;;;3.00;2.67;;;;;;;;5127657;27;47272;-46
2023/10/23 10:44:52;;;;;;;;;2.33;2.33;;;;;;;;5131259;27;45400;-46
2023/10/23 10:47:17;;;;;;;;;2.00;2.00;;;;;;;;5132352;27;45387;-46
2023/10/23 10:49:46;;;;;;;;;2.67;2.67;;;;;;;;5137058;27;45526;-47
2023/10/23 10:52:24;;;;;;;;;3.67;3.33;;;;;;;;5126517;27;46091;-47
2023/10/23 10:54:50;;;;;;;;;5.33;5.33;;;;;;;;5131065;27;45278;-46
2023/10/23 10:57:15;;;;;;;;;6.00;6.00;;;;;;;;5134430;27;45320;-45
2023/10/23 10:59:41;;;;;;;;;6.33;6.33;;;;;;;;5135881;27;45302;-46
2023/10/23 11:02:08;;;;;;;;;4.33;4.33;;;;;;;;5130205;27;45446;-46
2023/10/23 11:04:34;;;;;;;;;9.00;9.00;;;;;;;;5126448;27;45867;-47
2023/10/23 11:06:59;;;;;;;;;6.33;6.00;;;;;;;;5125588;27;46070;-47
2023/10/23 11:09:24;;;;;;;;;6.33;6.33;;;;;;;;5113739;27;45298;-46
2023/10/23 11:11:49;;;;;;;;;6.67;4.00;;;;;;;;5105031;27;47279;-46
2023/10/23 11:14:15;;;;;;;;;9.00;7.00;;;;;;;;5134612;27;45235;-48
2023/10/23 11:16:40;;;;;;;;;12.00;10.67;;;;;;;;5132798;27;45257;-50
2023/10/23 11:19:05;;;;;;;;;15.00;14.00;;;;;;;;5134149;27;45306;-46
2023/10/23 11:21:32;;;;;;;;;18.33;17.00;;;;;;;;5141200;27;45354;-46
2023/10/23 11:23:58;;;;;;;;;12.67;11.33;;;;;;;;5140311;27;45722;-46
2023/10/23 11:26:23;;;;;;;;;7.67;7.67;;;;;;;;5136538;27;45285;-46
2023/10/23 11:28:48;;;;;;;;;6.33;6.33;;;;;;;;5119812;27;45594;-46
2023/10/23 11:31:14;;;;;;;;;9.00;8.67;;;;;;;;5128378;27;46425;-46
2023/10/23 11:33:39;;;;;;;;;7.67;5.33;;;;;;;;5130717;27;45320;-47
2023/10/23 11:36:05;;;;;;;;;7.00;5.67;;;;;;;;5121636;27;45272;-45
2023/10/23 11:38:35;;;;;;;;;5.67;5.67;;;;;;;;5135824;27;45349;-49
2023/10/23 11:41:01;;;;;;;;;11.33;11.33;;;;;;;;5128517;27;45457;-45
2023/10/23 11:43:26;;;;;;;;;14.67;11.33;;;;;;;;5124467;27;45371;-47
2023/10/23 11:45:51;;;;;;;;;20.00;17.67;;;;;;;;5110689;27;45323;-47
2023/10/23 11:48:16;;;;;;;;;12.00;10.33;;;;;;;;5123951;27;45279;-47
2023/10/23 11:50:42;;;;;;;;;11.00;11.00;;;;;;;;5125926;27;46237;-46
2023/10/23 11:53:07;;;;;;;;;19.33;15.67;;;;;;;;5130726;27;45351;-46
2023/10/23 11:55:33;;;;;;;;;18.00;14.00;;;;;;;;5136204;27;45438;-45
2023/10/23 11:57:59;;;;;;;;;12.67;12.33;;;;;;;;5118776;27;45357;-46
2023/10/23 12:00:24;;;;;;;;;10.67;10.33;;;;;;;;5132488;27;46425;-48
2023/10/23 12:02:50;;;;;;;;;13.33;10.00;;;;;;;;5136266;27;45347;-46
2023/10/23 12:05:16;;;;;;;;;11.33;11.33;;;;;;;;5123581;27;45311;-47
2023/10/23 12:07:42;;;;;;;;;12.33;10.33;;;;;;;;5138543;27;45498;-47
2023/10/23 12:10:09;;;;;;;;;19.67;19.33;;;;;;;;5122076;27;45382;-46
2023/10/23 12:12:34;;;;;;;;;25.00;21.00;;;;;;;;5124752;27;45498;-46
2023/10/23 12:14:59;;;;;;;;;31.00;29.00;;;;;;;;5130288;27;45434;-46
2023/10/23 12:17:25;;;;;;;;;16.67;14.33;;;;;;;;5129345;27;45426;-50
2023/10/23 12:19:50;;;;;;;;;11.33;10.33;;;;;;;;5131717;27;45433;-47
2023/10/23 12:22:15;;;;;;;;;26.33;21.67;;;;;;;;5125968;27;46366;-46
2023/10/23 12:24:40;;;;;;;;;19.00;17.67;;;;;;;;5115097;27;45329;-45
2023/10/23 12:27:05;;;;;;;;;7.33;7.33;;;;;;;;5130901;27;45331;-46
2023/10/23 12:29:31;;;;;;;;;8.67;5.33;;;;;;;;5127699;27;45419;-45
2023/10/23 12:31:56;;;;;;;;;5.33;4.67;;;;;;;;5140120;27;45284;-46
2023/10/23 12:34:21;;;;;;;;;4.67;4.67;;;;;;;;5135187;27;45455;-45
2023/10/23 12:36:46;;;;;;;;;6.33;6.33;;;;;;;;5140535;27;45423;-46
2023/10/23 12:39:12;;;;;;;;;11.33;10.00;;;;;;;;5139702;27;46579;-47
2023/10/23 12:41:37;;;;;;;;;6.00;5.33;;;;;;;;5140048;27;45225;-47
2023/10/23 12:44:02;;;;;;;;;7.33;6.67;;;;;;;;5132835;27;45435;-45
2023/10/23 12:46:27;;;;;;;;;6.67;4.33;;;;;;;;5135171;27;45431;-46
2023/10/23 12:48:52;;;;;;;;;5.67;4.33;;;;;;;;5132761;27;46645;-46
2023/10/23 12:51:20;;;;;;;;;7.67;7.67;;;;;;;;5128637;27;45197;-46
2023/10/23 12:53:45;;;;;;;;;9.00;9.00;;;;;;;;5108350;27;45273;-46
2023/10/23 12:56:10;;;;;;;;;10.33;8.00;;;;;;;;5131711;27;45321;-49
2023/10/23 12:58:36;;;;;;;;;6.33;6.33;;;;;;;;5126059;27;46316;-47
2023/10/23 13:01:01;;;;;;;;;7.67;7.67;;;;;;;;5119420;27;45464;-45
2023/10/23 13:03:26;;;;;;;;;8.00;6.67;;;;;;;;5136686;27;45415;-46
2023/10/23 13:05:51;;;;;;;;;6.00;6.00;;;;;;;;5127381;27;45598;-45
2023/10/23 13:08:16;;;;;;;;;11.00;7.33;;;;;;;;5132258;27;45689;-47
2023/10/23 13:10:42;;;;;;;;;7.67;6.67;;;;;;;;5108102;27;45487;-46
2023/10/23 13:13:07;;;;;;;;;5.00;5.00;;;;;;;;5130487;27;45455;-47
2023/10/23 13:15:32;;;;;;;;;8.67;7.00;;;;;;;;5133690;27;45265;-46
2023/10/23 13:18:00;;;;;;;;;3.00;3.00;;;;;;;;5136423;27;45489;-45
2023/10/23 13:20:25;;;;;;;;;11.33;6.00;;;;;;;;5124690;27;45345;-46
2023/10/23 13:22:50;;;;;;;;;7.33;5.33;;;;;;;;5130778;27;45361;-45
2023/10/23 13:25:15;;;;;;;;;5.33;4.67;;;;;;;;5132684;27;45226;-44
2023/10/23 13:27:41;;;;;;;;;5.00;5.00;;;;;;;;5124308;27;46297;-48
2023/10/23 13:30:06;;;;;;;;;7.00;6.00;;;;;;;;5124361;27;45747;-48
2023/10/23 13:32:33;;;;;;;;;7.00;7.00;;;;;;;;5106009;27;45766;-47
2023/10/23 13:34:58;;;;;;;;;4.33;4.33;;;;;;;;5131581;27;45530;-46
2023/10/23 13:37:23;;;;;;;;;6.00;5.33;;;;;;;;5130551;27;46160;-46
2023/10/23 13:39:49;;;;;;;;;7.00;5.33;;;;;;;;5124025;27;45414;-46
2023/10/23 13:42:14;;;;;;;;;6.00;6.00;;;;;;;;5142584;27;45581;-46
2023/10/23 13:44:39;;;;;;;;;6.00;6.00;;;;;;;;5117935;27;45623;-46
2023/10/23 13:47:04;;;;;;;;;7.67;6.67;;;;;;;;5142491;27;45591;-47
2023/10/23 13:49:29;;;;;;;;;3.33;3.33;;;;;;;;5129492;27;45381;-47
2023/10/23 13:51:55;;;;;;;;;6.67;6.00;;;;;;;;5134496;27;45346;-48
2023/10/23 13:54:20;;;;;;;;;5.00;5.00;;;;;;;;5128721;27;45634;-46
2023/10/23 13:56:47;;;;;;;;;12.67;12.67;;;;;;;;5138744;27;46180;-46
2023/10/23 13:59:12;;;;;;;;;14.33;12.33;;;;;;;;5130362;27;45270;-47
2023/10/23 14:01:37;;;;;;;;;16.67;13.00;;;;;;;;5126399;27;45432;-47
2023/10/23 14:04:03;;;;;;;;;13.67;9.67;;;;;;;;5139377;27;45274;-47
2023/10/23 14:06:28;;;;;;;;;9.00;7.00;;;;;;;;5131062;27;45469;-48
2023/10/23 14:08:54;;;;;;;;;8.00;8.00;;;;;;;;5138360;27;45328;-47
2023/10/23 14:11:20;;;;;;;;;9.33;7.33;;;;;;;;5135872;27;45613;-48
2023/10/23 14:13:45;;;;;;;;;8.00;7.00;;;;;;;;5141961;27;45410;-49
2023/10/23 14:16:11;;;;;;;;;4.67;4.67;;;;;;;;5136000;27;45328;-48
2023/10/23 14:18:36;;;;;;;;;6.33;6.00;;;;;;;;5142376;27;45449;-47
2023/10/23 14:21:01;;;;;;;;;6.33;5.33;;;;;;;;5136568;27;45466;-50
2023/10/23 14:23:27;;;;;;;;;8.00;7.67;;;;;;;;5125312;27;45308;-46
2023/10/23 14:25:52;;;;;;;;;5.00;5.00;;;;;;;;5129052;27;45282;-47